sensor_id;sensor_type;location;lat;lon;timestamp;P1;durP1;ratioP1;P2;durP2;ratioP2
21848;SDS011;11089;49.852;19.700;2023-04-06T00:02:28;22.15;;;11.07;;
21848;SDS011;11089;49.852;19.700;2023-04-06T00:05:29;23.17;;;10.77;;
21848;SDS011;11089;49.852;19.700;2023-04-06T00:08:30;24.65;;;11.85;;
21848;SDS011;11089;49.852;19.700;2023-04-06T00:11:31;23.55;;;11.40;;
21848;SDS011;11089;49.852;19.700;2023-04-06T00:14:32;23.70;;;10.65;;
21848;SDS011;11089;49.852;19.700;2023-04-06T00:17:34;23.10;;;10.73;;
21848;SDS011;11089;49.852;19.700;2023-04-06T00:20:35;23.67;;;11.32;;
21848;SDS011;11089;49.852;19.700;2023-04-06T00:23:36;17.38;;;9.40;;
21848;SDS011;11089;49.852;19.700;2023-04-06T00:26:37;19.65;;;9.55;;
21848;SDS011;11089;49.852;19.700;2023-04-06T00:29:39;17.23;;;9.40;;
21848;SDS011;11089;49.852;19.700;2023-04-06T00:32:40;22.70;;;10.35;;
21848;SDS011;11089;49.852;19.700;2023-04-06T00:35:41;21.60;;;11.13;;
21848;SDS011;11089;49.852;19.700;2023-04-06T00:38:41;21.90;;;10.70;;
21848;SDS011;11089;49.852;19.700;2023-04-06T00:41:45;22.33;;;10.13;;
21848;SDS011;11089;49.852;19.700;2023-04-06T00:44:49;19.80;;;9.70;;
21848;SDS011;11089;49.852;19.700;2023-04-06T00:47:51;23.65;;;10.68;;
21848;SDS011;11089;49.852;19.700;2023-04-06T00:50:52;21.50;;;9.35;;
21848;SDS011;11089;49.852;19.700;2023-04-06T00:53:53;22.05;;;10.07;;
21848;SDS011;11089;49.852;19.700;2023-04-06T00:56:54;21.75;;;9.98;;
21848;SDS011;11089;49.852;19.700;2023-04-06T00:59:56;21.67;;;9.73;;
21848;SDS011;11089;49.852;19.700;2023-04-06T01:02:57;20.98;;;9.40;;
21848;SDS011;11089;49.852;19.700;2023-04-06T01:05:58;22.58;;;10.23;;
21848;SDS011;11089;49.852;19.700;2023-04-06T01:08:59;21.50;;;9.57;;
21848;SDS011;11089;49.852;19.700;2023-04-06T01:12:00;19.10;;;9.57;;
21848;SDS011;11089;49.852;19.700;2023-04-06T01:15:02;20.77;;;10.10;;
21848;SDS011;11089;49.852;19.700;2023-04-06T01:18:03;20.45;;;9.18;;
21848;SDS011;11089;49.852;19.700;2023-04-06T01:21:07;19.73;;;9.23;;
21848;SDS011;11089;49.852;19.700;2023-04-06T01:24:10;20.55;;;8.98;;
21848;SDS011;11089;49.852;19.700;2023-04-06T01:27:11;19.20;;;8.55;;
21848;SDS011;11089;49.852;19.700;2023-04-06T01:30:13;19.40;;;9.32;;
21848;SDS011;11089;49.852;19.700;2023-04-06T01:33:14;16.00;;;9.13;;
21848;SDS011;11089;49.852;19.700;2023-04-06T01:36:15;19.25;;;8.82;;
21848;SDS011;11089;49.852;19.700;2023-04-06T01:39:16;18.60;;;9.20;;
21848;SDS011;11089;49.852;19.700;2023-04-06T01:42:17;16.33;;;7.88;;
21848;SDS011;11089;49.852;19.700;2023-04-06T01:45:18;15.98;;;8.35;;
21848;SDS011;11089;49.852;19.700;2023-04-06T01:48:19;19.98;;;9.07;;
21848;SDS011;11089;49.852;19.700;2023-04-06T01:51:20;18.90;;;8.63;;
21848;SDS011;11089;49.852;19.700;2023-04-06T01:54:21;17.85;;;8.52;;
21848;SDS011;11089;49.852;19.700;2023-04-06T01:57:22;18.33;;;8.13;;
21848;SDS011;11089;49.852;19.700;2023-04-06T02:00:23;18.73;;;9.10;;
21848;SDS011;11089;49.852;19.700;2023-04-06T02:03:24;16.60;;;7.90;;
21848;SDS011;11089;49.852;19.700;2023-04-06T02:06:25;19.77;;;9.25;;
21848;SDS011;11089;49.852;19.700;2023-04-06T02:09:26;16.90;;;8.45;;
21848;SDS011;11089;49.852;19.700;2023-04-06T02:12:27;18.63;;;8.60;;
21848;SDS011;11089;49.852;19.700;2023-04-06T02:15:28;17.08;;;8.10;;
21848;SDS011;11089;49.852;19.700;2023-04-06T02:18:30;16.98;;;8.50;;
21848;SDS011;11089;49.852;19.700;2023-04-06T02:21:31;17.33;;;7.90;;
21848;SDS011;11089;49.852;19.700;2023-04-06T02:24:32;17.08;;;8.15;;
21848;SDS011;11089;49.852;19.700;2023-04-06T02:27:33;21.65;;;8.73;;
21848;SDS011;11089;49.852;19.700;2023-04-06T02:30:34;16.58;;;8.43;;
21848;SDS011;11089;49.852;19.700;2023-04-06T02:33:35;18.30;;;8.07;;
21848;SDS011;11089;49.852;19.700;2023-04-06T02:36:36;19.83;;;8.20;;
21848;SDS011;11089;49.852;19.700;2023-04-06T02:39:37;18.52;;;8.60;;
21848;SDS011;11089;49.852;19.700;2023-04-06T02:42:38;16.17;;;8.18;;
21848;SDS011;11089;49.852;19.700;2023-04-06T02:45:39;20.05;;;8.65;;
21848;SDS011;11089;49.852;19.700;2023-04-06T02:48:40;19.77;;;9.38;;
21848;SDS011;11089;49.852;19.700;2023-04-06T02:51:41;16.10;;;8.52;;
21848;SDS011;11089;49.852;19.700;2023-04-06T02:54:42;17.15;;;8.50;;
21848;SDS011;11089;49.852;19.700;2023-04-06T02:57:43;17.40;;;8.35;;
21848;SDS011;11089;49.852;19.700;2023-04-06T03:00:44;21.67;;;9.45;;
21848;SDS011;11089;49.852;19.700;2023-04-06T03:03:45;19.48;;;9.57;;
21848;SDS011;11089;49.852;19.700;2023-04-06T03:06:46;21.88;;;10.32;;
21848;SDS011;11089;49.852;19.700;2023-04-06T03:09:47;21.35;;;9.80;;
21848;SDS011;11089;49.852;19.700;2023-04-06T03:12:48;17.35;;;9.18;;
21848;SDS011;11089;49.852;19.700;2023-04-06T03:15:49;20.50;;;9.13;;
21848;SDS011;11089;49.852;19.700;2023-04-06T03:18:50;17.55;;;8.45;;
21848;SDS011;11089;49.852;19.700;2023-04-06T03:21:51;18.73;;;8.20;;
21848;SDS011;11089;49.852;19.700;2023-04-06T03:24:51;22.65;;;8.98;;
21848;SDS011;11089;49.852;19.700;2023-04-06T03:27:52;18.02;;;8.68;;
21848;SDS011;11089;49.852;19.700;2023-04-06T03:30:53;16.88;;;8.48;;
21848;SDS011;11089;49.852;19.700;2023-04-06T03:33:55;13.52;;;7.80;;
21848;SDS011;11089;49.852;19.700;2023-04-06T03:36:56;15.45;;;8.32;;
21848;SDS011;11089;49.852;19.700;2023-04-06T03:39:57;18.33;;;8.13;;
21848;SDS011;11089;49.852;19.700;2023-04-06T03:42:58;15.57;;;7.50;;
21848;SDS011;11089;49.852;19.700;2023-04-06T03:45:59;18.95;;;8.32;;
21848;SDS011;11089;49.852;19.700;2023-04-06T03:49:00;17.10;;;8.48;;
21848;SDS011;11089;49.852;19.700;2023-04-06T03:52:01;19.40;;;8.40;;
21848;SDS011;11089;49.852;19.700;2023-04-06T03:55:02;18.67;;;8.93;;
21848;SDS011;11089;49.852;19.700;2023-04-06T03:58:03;18.60;;;9.02;;
21848;SDS011;11089;49.852;19.700;2023-04-06T04:01:04;17.35;;;9.25;;
21848;SDS011;11089;49.852;19.700;2023-04-06T04:04:05;16.77;;;8.63;;
21848;SDS011;11089;49.852;19.700;2023-04-06T04:07:06;17.52;;;8.43;;
21848;SDS011;11089;49.852;19.700;2023-04-06T04:10:07;16.20;;;8.98;;
21848;SDS011;11089;49.852;19.700;2023-04-06T04:13:08;19.85;;;8.88;;
21848;SDS011;11089;49.852;19.700;2023-04-06T04:16:09;19.48;;;8.80;;
21848;SDS011;11089;49.852;19.700;2023-04-06T04:19:10;18.17;;;8.63;;
21848;SDS011;11089;49.852;19.700;2023-04-06T04:22:11;18.70;;;9.43;;
21848;SDS011;11089;49.852;19.700;2023-04-06T04:25:12;20.90;;;9.75;;
21848;SDS011;11089;49.852;19.700;2023-04-06T04:28:13;18.35;;;8.95;;
21848;SDS011;11089;49.852;19.700;2023-04-06T04:31:14;23.13;;;10.23;;
21848;SDS011;11089;49.852;19.700;2023-04-06T04:34:18;21.83;;;9.45;;
21848;SDS011;11089;49.852;19.700;2023-04-06T04:37:25;22.33;;;9.82;;
21848;SDS011;11089;49.852;19.700;2023-04-06T04:40:26;20.10;;;10.55;;
21848;SDS011;11089;49.852;19.700;2023-04-06T04:43:26;21.77;;;10.13;;
21848;SDS011;11089;49.852;19.700;2023-04-06T04:46:27;22.65;;;10.40;;
21848;SDS011;11089;49.852;19.700;2023-04-06T04:49:28;18.50;;;10.15;;
21848;SDS011;11089;49.852;19.700;2023-04-06T04:52:29;20.50;;;10.00;;
21848;SDS011;11089;49.852;19.700;2023-04-06T04:55:30;20.85;;;9.68;;
21848;SDS011;11089;49.852;19.700;2023-04-06T04:58:31;20.05;;;10.05;;
21848;SDS011;11089;49.852;19.700;2023-04-06T05:01:32;17.75;;;9.45;;
21848;SDS011;11089;49.852;19.700;2023-04-06T05:04:33;21.83;;;10.68;;
21848;SDS011;11089;49.852;19.700;2023-04-06T05:07:35;21.73;;;9.38;;
21848;SDS011;11089;49.852;19.700;2023-04-06T05:10:36;22.40;;;10.13;;
21848;SDS011;11089;49.852;19.700;2023-04-06T05:13:37;26.42;;;11.05;;
21848;SDS011;11089;49.852;19.700;2023-04-06T05:16:38;28.92;;;12.90;;
21848;SDS011;11089;49.852;19.700;2023-04-06T05:19:39;25.35;;;13.05;;
21848;SDS011;11089;49.852;19.700;2023-04-06T05:22:40;29.80;;;13.35;;
21848;SDS011;11089;49.852;19.700;2023-04-06T05:25:41;27.02;;;13.15;;
21848;SDS011;11089;49.852;19.700;2023-04-06T05:28:42;25.30;;;11.50;;
21848;SDS011;11089;49.852;19.700;2023-04-06T05:31:44;23.15;;;11.52;;
21848;SDS011;11089;49.852;19.700;2023-04-06T05:34:45;24.85;;;12.60;;
21848;SDS011;11089;49.852;19.700;2023-04-06T05:37:46;26.98;;;12.65;;
21848;SDS011;11089;49.852;19.700;2023-04-06T05:40:47;29.38;;;13.43;;
21848;SDS011;11089;49.852;19.700;2023-04-06T05:43:48;44.05;;;17.65;;
21848;SDS011;11089;49.852;19.700;2023-04-06T05:46:49;52.45;;;21.48;;
21848;SDS011;11089;49.852;19.700;2023-04-06T05:49:50;41.17;;;17.80;;
21848;SDS011;11089;49.852;19.700;2023-04-06T05:52:51;54.97;;;24.85;;
21848;SDS011;11089;49.852;19.700;2023-04-06T05:55:52;46.83;;;20.58;;
21848;SDS011;11089;49.852;19.700;2023-04-06T05:58:53;53.05;;;21.77;;
21848;SDS011;11089;49.852;19.700;2023-04-06T06:01:53;51.20;;;22.55;;
21848;SDS011;11089;49.852;19.700;2023-04-06T06:04:54;44.80;;;19.48;;
21848;SDS011;11089;49.852;19.700;2023-04-06T06:07:55;42.50;;;20.52;;
21848;SDS011;11089;49.852;19.700;2023-04-06T06:10:56;47.97;;;19.90;;
21848;SDS011;11089;49.852;19.700;2023-04-06T06:13:57;43.78;;;18.90;;
21848;SDS011;11089;49.852;19.700;2023-04-06T06:16:58;37.28;;;17.10;;
21848;SDS011;11089;49.852;19.700;2023-04-06T06:19:59;36.60;;;17.50;;
21848;SDS011;11089;49.852;19.700;2023-04-06T06:23:00;37.55;;;17.83;;
21848;SDS011;11089;49.852;19.700;2023-04-06T06:26:01;41.53;;;18.73;;
21848;SDS011;11089;49.852;19.700;2023-04-06T06:29:02;43.75;;;19.52;;
21848;SDS011;11089;49.852;19.700;2023-04-06T06:32:05;40.40;;;18.83;;
21848;SDS011;11089;49.852;19.700;2023-04-06T06:35:08;38.50;;;18.52;;
21848;SDS011;11089;49.852;19.700;2023-04-06T06:38:09;39.67;;;19.52;;
21848;SDS011;11089;49.852;19.700;2023-04-06T06:41:10;38.03;;;17.67;;
21848;SDS011;11089;49.852;19.700;2023-04-06T06:44:11;40.15;;;17.60;;
21848;SDS011;11089;49.852;19.700;2023-04-06T06:47:12;40.42;;;17.73;;
21848;SDS011;11089;49.852;19.700;2023-04-06T06:50:13;34.72;;;15.75;;
21848;SDS011;11089;49.852;19.700;2023-04-06T06:53:14;31.73;;;15.25;;
21848;SDS011;11089;49.852;19.700;2023-04-06T06:56:15;31.42;;;15.15;;
21848;SDS011;11089;49.852;19.700;2023-04-06T06:59:16;29.05;;;14.38;;
21848;SDS011;11089;49.852;19.700;2023-04-06T07:02:17;36.08;;;14.77;;
21848;SDS011;11089;49.852;19.700;2023-04-06T07:05:18;31.45;;;15.52;;
21848;SDS011;11089;49.852;19.700;2023-04-06T07:08:20;28.55;;;14.48;;
21848;SDS011;11089;49.852;19.700;2023-04-06T07:11:22;31.23;;;15.13;;
21848;SDS011;11089;49.852;19.700;2023-04-06T07:14:23;30.27;;;15.30;;
21848;SDS011;11089;49.852;19.700;2023-04-06T07:17:24;27.00;;;12.77;;
21848;SDS011;11089;49.852;19.700;2023-04-06T07:20:25;27.90;;;12.60;;
21848;SDS011;11089;49.852;19.700;2023-04-06T07:23:28;21.33;;;10.40;;
21848;SDS011;11089;49.852;19.700;2023-04-06T07:26:29;16.70;;;9.40;;
21848;SDS011;11089;49.852;19.700;2023-04-06T07:29:30;18.33;;;8.93;;
21848;SDS011;11089;49.852;19.700;2023-04-06T07:32:31;15.20;;;8.70;;
21848;SDS011;11089;49.852;19.700;2023-04-06T07:35:32;16.50;;;8.60;;
21848;SDS011;11089;49.852;19.700;2023-04-06T07:38:34;16.73;;;9.20;;
21848;SDS011;11089;49.852;19.700;2023-04-06T07:41:35;14.43;;;8.13;;
21848;SDS011;11089;49.852;19.700;2023-04-06T07:44:36;15.63;;;8.57;;
21848;SDS011;11089;49.852;19.700;2023-04-06T07:47:37;16.48;;;8.70;;
21848;SDS011;11089;49.852;19.700;2023-04-06T07:50:38;21.25;;;9.75;;
21848;SDS011;11089;49.852;19.700;2023-04-06T07:53:39;15.65;;;9.00;;
21848;SDS011;11089;49.852;19.700;2023-04-06T07:56:40;18.90;;;10.95;;
21848;SDS011;11089;49.852;19.700;2023-04-06T07:59:41;15.52;;;8.18;;
21848;SDS011;11089;49.852;19.700;2023-04-06T08:02:42;14.45;;;7.72;;
21848;SDS011;11089;49.852;19.700;2023-04-06T08:05:43;17.33;;;8.13;;
21848;SDS011;11089;49.852;19.700;2023-04-06T08:08:45;13.80;;;7.68;;
21848;SDS011;11089;49.852;19.700;2023-04-06T08:11:46;12.30;;;7.60;;
21848;SDS011;11089;49.852;19.700;2023-04-06T08:14:48;13.35;;;7.28;;
21848;SDS011;11089;49.852;19.700;2023-04-06T08:17:49;13.93;;;8.07;;
21848;SDS011;11089;49.852;19.700;2023-04-06T08:20:50;18.80;;;8.50;;
21848;SDS011;11089;49.852;19.700;2023-04-06T08:23:51;13.30;;;6.90;;
21848;SDS011;11089;49.852;19.700;2023-04-06T08:26:52;14.07;;;7.88;;
21848;SDS011;11089;49.852;19.700;2023-04-06T08:29:53;13.45;;;7.25;;
21848;SDS011;11089;49.852;19.700;2023-04-06T08:32:54;12.90;;;6.85;;
21848;SDS011;11089;49.852;19.700;2023-04-06T08:35:55;12.68;;;7.18;;
21848;SDS011;11089;49.852;19.700;2023-04-06T08:38:56;19.00;;;8.68;;
21848;SDS011;11089;49.852;19.700;2023-04-06T08:42:00;13.40;;;7.28;;
21848;SDS011;11089;49.852;19.700;2023-04-06T08:45:03;14.80;;;7.88;;
21848;SDS011;11089;49.852;19.700;2023-04-06T08:48:04;17.23;;;8.45;;
21848;SDS011;11089;49.852;19.700;2023-04-06T08:51:06;12.82;;;6.80;;
21848;SDS011;11089;49.852;19.700;2023-04-06T08:54:09;12.27;;;6.78;;
21848;SDS011;11089;49.852;19.700;2023-04-06T08:57:10;14.23;;;7.55;;
21848;SDS011;11089;49.852;19.700;2023-04-06T09:00:11;15.75;;;7.95;;
21848;SDS011;11089;49.852;19.700;2023-04-06T09:03:14;16.42;;;7.40;;
21848;SDS011;11089;49.852;19.700;2023-04-06T09:06:15;14.57;;;8.32;;
21848;SDS011;11089;49.852;19.700;2023-04-06T09:09:17;13.77;;;8.32;;
21848;SDS011;11089;49.852;19.700;2023-04-06T09:12:24;13.05;;;7.72;;
21848;SDS011;11089;49.852;19.700;2023-04-06T09:15:29;11.43;;;7.35;;
21848;SDS011;11089;49.852;19.700;2023-04-06T09:18:31;14.30;;;7.55;;
21848;SDS011;11089;49.852;19.700;2023-04-06T09:21:32;12.60;;;7.28;;
21848;SDS011;11089;49.852;19.700;2023-04-06T09:24:41;11.85;;;6.85;;
21848;SDS011;11089;49.852;19.700;2023-04-06T09:27:43;14.30;;;7.53;;
21848;SDS011;11089;49.852;19.700;2023-04-06T09:30:48;13.40;;;7.78;;
21848;SDS011;11089;49.852;19.700;2023-04-06T09:33:49;11.77;;;7.15;;
21848;SDS011;11089;49.852;19.700;2023-04-06T09:36:52;14.20;;;7.65;;
21848;SDS011;11089;49.852;19.700;2023-04-06T09:40:01;12.52;;;7.75;;
21848;SDS011;11089;49.852;19.700;2023-04-06T09:43:03;15.00;;;7.50;;
21848;SDS011;11089;49.852;19.700;2023-04-06T09:46:07;11.23;;;7.10;;
21848;SDS011;11089;49.852;19.700;2023-04-06T09:49:08;12.45;;;6.93;;
21848;SDS011;11089;49.852;19.700;2023-04-06T09:52:10;12.90;;;7.22;;
21848;SDS011;11089;49.852;19.700;2023-04-06T09:55:12;11.75;;;6.63;;
21848;SDS011;11089;49.852;19.700;2023-04-06T09:58:26;12.40;;;7.15;;
21848;SDS011;11089;49.852;19.700;2023-04-06T10:01:32;11.13;;;7.68;;
21848;SDS011;11089;49.852;19.700;2023-04-06T10:04:37;13.63;;;7.20;;
21848;SDS011;11089;49.852;19.700;2023-04-06T10:07:50;13.15;;;7.80;;
21848;SDS011;11089;49.852;19.700;2023-04-06T10:10:56;13.02;;;7.43;;
21848;SDS011;11089;49.852;19.700;2023-04-06T10:13:57;14.15;;;8.20;;
21848;SDS011;11089;49.852;19.700;2023-04-06T10:16:58;15.40;;;8.32;;
21848;SDS011;11089;49.852;19.700;2023-04-06T10:20:21;12.82;;;7.70;;
21848;SDS011;11089;49.852;19.700;2023-04-06T10:23:31;15.07;;;8.50;;
21848;SDS011;11089;49.852;19.700;2023-04-06T10:26:35;16.10;;;7.93;;
21848;SDS011;11089;49.852;19.700;2023-04-06T10:29:45;15.40;;;8.13;;
21848;SDS011;11089;49.852;19.700;2023-04-06T10:32:48;14.55;;;8.27;;
21848;SDS011;11089;49.852;19.700;2023-04-06T10:35:49;16.20;;;8.85;;
21848;SDS011;11089;49.852;19.700;2023-04-06T10:38:54;12.80;;;7.50;;
21848;SDS011;11089;49.852;19.700;2023-04-06T10:41:57;13.07;;;8.68;;
21848;SDS011;11089;49.852;19.700;2023-04-06T10:45:07;15.30;;;8.27;;
21848;SDS011;11089;49.852;19.700;2023-04-06T10:48:18;14.00;;;8.02;;
21848;SDS011;11089;49.852;19.700;2023-04-06T10:51:25;12.90;;;8.13;;
21848;SDS011;11089;49.852;19.700;2023-04-06T10:54:27;13.52;;;7.95;;
21848;SDS011;11089;49.852;19.700;2023-04-06T10:57:29;14.48;;;7.88;;
21848;SDS011;11089;49.852;19.700;2023-04-06T11:00:33;15.10;;;8.27;;
21848;SDS011;11089;49.852;19.700;2023-04-06T11:03:42;17.02;;;9.43;;
21848;SDS011;11089;49.852;19.700;2023-04-06T11:06:47;18.83;;;9.52;;
21848;SDS011;11089;49.852;19.700;2023-04-06T11:09:49;17.15;;;8.90;;
21848;SDS011;11089;49.852;19.700;2023-04-06T11:12:53;17.58;;;8.65;;
21848;SDS011;11089;49.852;19.700;2023-04-06T11:15:55;16.88;;;9.57;;
21848;SDS011;11089;49.852;19.700;2023-04-06T11:18:59;16.75;;;9.10;;
21848;SDS011;11089;49.852;19.700;2023-04-06T11:22:06;14.57;;;9.13;;
21848;SDS011;11089;49.852;19.700;2023-04-06T11:25:08;20.08;;;9.32;;
21848;SDS011;11089;49.852;19.700;2023-04-06T11:28:09;18.58;;;9.32;;
21848;SDS011;11089;49.852;19.700;2023-04-06T11:31:10;15.18;;;8.82;;
21848;SDS011;11089;49.852;19.700;2023-04-06T11:34:12;15.02;;;8.65;;
21848;SDS011;11089;49.852;19.700;2023-04-06T11:37:15;15.52;;;8.80;;
21848;SDS011;11089;49.852;19.700;2023-04-06T11:40:21;15.98;;;9.00;;
21848;SDS011;11089;49.852;19.700;2023-04-06T11:43:46;18.40;;;9.43;;
21848;SDS011;11089;49.852;19.700;2023-04-06T11:46:52;20.25;;;9.95;;
21848;SDS011;11089;49.852;19.700;2023-04-06T11:49:54;17.80;;;10.82;;
21848;SDS011;11089;49.852;19.700;2023-04-06T11:52:59;19.75;;;10.80;;
21848;SDS011;11089;49.852;19.700;2023-04-06T11:56:01;22.58;;;11.75;;
21848;SDS011;11089;49.852;19.700;2023-04-06T11:59:02;19.45;;;11.43;;
21848;SDS011;11089;49.852;19.700;2023-04-06T12:02:03;20.77;;;11.68;;
21848;SDS011;11089;49.852;19.700;2023-04-06T12:05:05;21.63;;;11.70;;
21848;SDS011;11089;49.852;19.700;2023-04-06T12:08:08;23.33;;;12.15;;
21848;SDS011;11089;49.852;19.700;2023-04-06T12:11:09;25.08;;;13.15;;
21848;SDS011;11089;49.852;19.700;2023-04-06T12:14:10;25.60;;;13.20;;
21848;SDS011;11089;49.852;19.700;2023-04-06T12:17:11;29.00;;;13.20;;
21848;SDS011;11089;49.852;19.700;2023-04-06T12:20:12;28.80;;;14.10;;
21848;SDS011;11089;49.852;19.700;2023-04-06T12:23:14;31.38;;;15.65;;
21848;SDS011;11089;49.852;19.700;2023-04-06T12:26:15;31.52;;;14.20;;
21848;SDS011;11089;49.852;19.700;2023-04-06T12:29:16;32.92;;;15.13;;
21848;SDS011;11089;49.852;19.700;2023-04-06T12:32:16;35.22;;;16.73;;
21848;SDS011;11089;49.852;19.700;2023-04-06T12:35:18;39.50;;;19.83;;
21848;SDS011;11089;49.852;19.700;2023-04-06T12:38:19;36.45;;;17.48;;
21848;SDS011;11089;49.852;19.700;2023-04-06T12:41:20;35.92;;;17.95;;
21848;SDS011;11089;49.852;19.700;2023-04-06T12:44:21;37.63;;;18.70;;
21848;SDS011;11089;49.852;19.700;2023-04-06T12:47:22;41.33;;;20.17;;
21848;SDS011;11089;49.852;19.700;2023-04-06T12:50:23;41.08;;;18.55;;
21848;SDS011;11089;49.852;19.700;2023-04-06T12:53:24;34.88;;;16.58;;
21848;SDS011;11089;49.852;19.700;2023-04-06T12:56:25;32.70;;;16.40;;
21848;SDS011;11089;49.852;19.700;2023-04-06T12:59:26;32.25;;;14.45;;
21848;SDS011;11089;49.852;19.700;2023-04-06T13:02:31;32.20;;;15.57;;
21848;SDS011;11089;49.852;19.700;2023-04-06T13:05:32;27.58;;;14.40;;
21848;SDS011;11089;49.852;19.700;2023-04-06T13:08:33;31.75;;;15.30;;
21848;SDS011;11089;49.852;19.700;2023-04-06T13:11:34;32.35;;;15.57;;
21848;SDS011;11089;49.852;19.700;2023-04-06T13:14:35;27.92;;;15.18;;
21848;SDS011;11089;49.852;19.700;2023-04-06T13:17:35;29.70;;;14.65;;
21848;SDS011;11089;49.852;19.700;2023-04-06T13:20:36;29.10;;;14.50;;
21848;SDS011;11089;49.852;19.700;2023-04-06T13:23:37;27.83;;;14.40;;
21848;SDS011;11089;49.852;19.700;2023-04-06T13:26:38;27.00;;;13.88;;
21848;SDS011;11089;49.852;19.700;2023-04-06T13:29:39;31.98;;;14.50;;
21848;SDS011;11089;49.852;19.700;2023-04-06T13:32:40;25.38;;;13.48;;
21848;SDS011;11089;49.852;19.700;2023-04-06T13:35:44;26.48;;;13.80;;
21848;SDS011;11089;49.852;19.700;2023-04-06T13:38:46;32.35;;;16.20;;
21848;SDS011;11089;49.852;19.700;2023-04-06T13:41:47;26.20;;;14.07;;
21848;SDS011;11089;49.852;19.700;2023-04-06T13:44:47;30.52;;;16.38;;
21848;SDS011;11089;49.852;19.700;2023-04-06T13:47:50;31.23;;;16.85;;
21848;SDS011;11089;49.852;19.700;2023-04-06T13:50:52;30.55;;;15.35;;
21848;SDS011;11089;49.852;19.700;2023-04-06T13:53:53;25.63;;;14.15;;
21848;SDS011;11089;49.852;19.700;2023-04-06T13:56:55;26.38;;;14.13;;
21848;SDS011;11089;49.852;19.700;2023-04-06T13:59:56;26.13;;;15.35;;
21848;SDS011;11089;49.852;19.700;2023-04-06T14:02:57;29.77;;;15.55;;
21848;SDS011;11089;49.852;19.700;2023-04-06T14:05:59;24.63;;;13.75;;
21848;SDS011;11089;49.852;19.700;2023-04-06T14:09:00;26.40;;;13.55;;
21848;SDS011;11089;49.852;19.700;2023-04-06T14:12:01;25.02;;;13.35;;
21848;SDS011;11089;49.852;19.700;2023-04-06T14:15:02;21.83;;;13.25;;
21848;SDS011;11089;49.852;19.700;2023-04-06T14:18:03;23.15;;;12.60;;
21848;SDS011;11089;49.852;19.700;2023-04-06T14:21:04;22.35;;;12.45;;
21848;SDS011;11089;49.852;19.700;2023-04-06T14:24:06;24.60;;;13.40;;
21848;SDS011;11089;49.852;19.700;2023-04-06T14:27:11;23.90;;;12.98;;
21848;SDS011;11089;49.852;19.700;2023-04-06T14:30:12;23.33;;;12.15;;
21848;SDS011;11089;49.852;19.700;2023-04-06T14:33:14;22.38;;;11.75;;
21848;SDS011;11089;49.852;19.700;2023-04-06T14:36:16;21.60;;;10.75;;
21848;SDS011;11089;49.852;19.700;2023-04-06T14:39:17;20.33;;;11.65;;
21848;SDS011;11089;49.852;19.700;2023-04-06T14:42:18;21.90;;;11.60;;
21848;SDS011;11089;49.852;19.700;2023-04-06T14:45:19;21.27;;;12.75;;
21848;SDS011;11089;49.852;19.700;2023-04-06T14:48:21;21.80;;;12.30;;
21848;SDS011;11089;49.852;19.700;2023-04-06T14:51:25;21.20;;;11.68;;
21848;SDS011;11089;49.852;19.700;2023-04-06T14:54:27;23.90;;;13.95;;
21848;SDS011;11089;49.852;19.700;2023-04-06T14:57:29;21.80;;;11.75;;
21848;SDS011;11089;49.852;19.700;2023-04-06T15:00:31;22.88;;;12.57;;
21848;SDS011;11089;49.852;19.700;2023-04-06T15:03:32;22.55;;;12.35;;
21848;SDS011;11089;49.852;19.700;2023-04-06T15:06:33;22.70;;;13.13;;
21848;SDS011;11089;49.852;19.700;2023-04-06T15:09:35;24.58;;;12.27;;
21848;SDS011;11089;49.852;19.700;2023-04-06T15:12:36;30.55;;;14.02;;
21848;SDS011;11089;49.852;19.700;2023-04-06T15:15:38;36.33;;;18.10;;
21848;SDS011;11089;49.852;19.700;2023-04-06T15:18:38;30.88;;;16.95;;
21848;SDS011;11089;49.852;19.700;2023-04-06T15:21:40;33.47;;;17.33;;
21848;SDS011;11089;49.852;19.700;2023-04-06T15:24:41;28.95;;;16.48;;
21848;SDS011;11089;49.852;19.700;2023-04-06T15:27:42;29.52;;;15.50;;
21848;SDS011;11089;49.852;19.700;2023-04-06T15:30:43;31.80;;;16.52;;
21848;SDS011;11089;49.852;19.700;2023-04-06T15:33:44;35.60;;;19.95;;
21848;SDS011;11089;49.852;19.700;2023-04-06T15:36:45;47.35;;;24.05;;
21848;SDS011;11089;49.852;19.700;2023-04-06T15:39:46;44.33;;;23.92;;
21848;SDS011;11089;49.852;19.700;2023-04-06T15:42:47;43.85;;;23.15;;
21848;SDS011;11089;49.852;19.700;2023-04-06T15:45:48;45.40;;;24.48;;
21848;SDS011;11089;49.852;19.700;2023-04-06T15:48:49;50.75;;;27.77;;
21848;SDS011;11089;49.852;19.700;2023-04-06T15:51:50;54.20;;;27.88;;
21848;SDS011;11089;49.852;19.700;2023-04-06T15:54:52;46.55;;;23.25;;
21848;SDS011;11089;49.852;19.700;2023-04-06T15:57:53;43.67;;;22.55;;
21848;SDS011;11089;49.852;19.700;2023-04-06T16:00:53;49.05;;;26.05;;
21848;SDS011;11089;49.852;19.700;2023-04-06T16:03:55;43.35;;;24.98;;
21848;SDS011;11089;49.852;19.700;2023-04-06T16:06:56;45.53;;;23.95;;
21848;SDS011;11089;49.852;19.700;2023-04-06T16:09:57;61.13;;;30.77;;
21848;SDS011;11089;49.852;19.700;2023-04-06T16:12:58;56.65;;;26.90;;
21848;SDS011;11089;49.852;19.700;2023-04-06T16:15:59;52.78;;;29.95;;
21848;SDS011;11089;49.852;19.700;2023-04-06T16:19:01;50.40;;;27.30;;
21848;SDS011;11089;49.852;19.700;2023-04-06T16:22:02;49.20;;;26.40;;
21848;SDS011;11089;49.852;19.700;2023-04-06T16:25:03;49.95;;;26.67;;
21848;SDS011;11089;49.852;19.700;2023-04-06T16:28:04;57.28;;;29.85;;
21848;SDS011;11089;49.852;19.700;2023-04-06T16:31:06;51.28;;;28.50;;
21848;SDS011;11089;49.852;19.700;2023-04-06T16:34:07;51.10;;;29.52;;
21848;SDS011;11089;49.852;19.700;2023-04-06T16:37:08;60.47;;;33.53;;
21848;SDS011;11089;49.852;19.700;2023-04-06T16:40:09;55.00;;;27.60;;
21848;SDS011;11089;49.852;19.700;2023-04-06T16:43:10;46.30;;;24.15;;
21848;SDS011;11089;49.852;19.700;2023-04-06T16:46:11;43.45;;;23.45;;
21848;SDS011;11089;49.852;19.700;2023-04-06T16:49:12;41.78;;;22.27;;
21848;SDS011;11089;49.852;19.700;2023-04-06T16:52:13;38.80;;;19.67;;
21848;SDS011;11089;49.852;19.700;2023-04-06T16:55:14;43.42;;;21.58;;
21848;SDS011;11089;49.852;19.700;2023-04-06T16:58:15;37.63;;;22.02;;
21848;SDS011;11089;49.852;19.700;2023-04-06T17:01:20;42.72;;;21.90;;
21848;SDS011;11089;49.852;19.700;2023-04-06T17:04:21;38.58;;;21.02;;
21848;SDS011;11089;49.852;19.700;2023-04-06T17:07:22;42.38;;;21.92;;
21848;SDS011;11089;49.852;19.700;2023-04-06T17:10:30;42.05;;;21.42;;
21848;SDS011;11089;49.852;19.700;2023-04-06T17:13:31;45.80;;;22.90;;
21848;SDS011;11089;49.852;19.700;2023-04-06T17:16:32;46.10;;;23.58;;
21848;SDS011;11089;49.852;19.700;2023-04-06T17:19:33;47.15;;;22.90;;
21848;SDS011;11089;49.852;19.700;2023-04-06T17:22:34;46.20;;;23.10;;
21848;SDS011;11089;49.852;19.700;2023-04-06T17:25:35;46.95;;;25.05;;
21848;SDS011;11089;49.852;19.700;2023-04-06T17:28:36;43.00;;;22.52;;
21848;SDS011;11089;49.852;19.700;2023-04-06T17:31:37;44.65;;;22.08;;
21848;SDS011;11089;49.852;19.700;2023-04-06T17:34:38;43.03;;;22.50;;